createdAt,value
2023-02-28T00:02:27.065Z,6.43
2023-02-28T00:05:02.151Z,6.00
2023-02-28T00:07:31.992Z,6.85
2023-02-28T00:09:59.268Z,7.00
2023-02-28T00:12:26.298Z,6.78
2023-02-28T00:14:53.413Z,6.75
2023-02-28T00:17:22.221Z,7.75
2023-02-28T00:19:49.880Z,7.38
2023-02-28T00:22:21.813Z,7.57
2023-02-28T00:24:48.779Z,7.63
2023-02-28T00:27:16.005Z,7.97
2023-02-28T00:29:43.025Z,7.63
2023-02-28T00:32:11.483Z,7.30
2023-02-28T00:34:38.961Z,8.20
2023-02-28T00:37:13.180Z,7.30
2023-02-28T00:39:40.557Z,7.53
2023-02-28T00:42:08.400Z,7.10
2023-02-28T00:44:35.713Z,8.00
2023-02-28T00:47:02.794Z,7.73
2023-02-28T00:49:29.846Z,8.48
2023-02-28T00:51:57.232Z,7.80
2023-02-28T00:54:25.029Z,7.63
2023-02-28T00:56:52.069Z,7.00
2023-02-28T00:59:19.512Z,7.40
2023-02-28T01:01:47.639Z,7.60
2023-02-28T01:04:15.762Z,7.47
2023-02-28T01:06:43.155Z,7.93
2023-02-28T01:09:11.966Z,5.97
2023-02-28T01:11:40.277Z,6.23
2023-02-28T01:14:07.315Z,5.97
2023-02-28T01:16:34.557Z,6.05
2023-02-28T01:19:03.315Z,5.95
2023-02-28T01:21:31.076Z,6.30
2023-02-28T01:23:58.928Z,5.97
2023-02-28T01:26:26.139Z,6.55
2023-02-28T01:28:54.383Z,6.50
2023-02-28T01:31:22.447Z,5.85
2023-02-28T01:33:50.617Z,5.68
2023-02-28T01:36:25.826Z,6.27
2023-02-28T01:38:53.421Z,6.57
2023-02-28T01:41:25.388Z,6.38
2023-02-28T01:43:55.985Z,6.90
2023-02-28T01:46:23.323Z,6.88
2023-02-28T01:48:58.206Z,7.10
2023-02-28T01:51:35.222Z,6.50
2023-02-28T01:54:14.732Z,6.25
2023-02-28T01:56:49.237Z,7.03
2023-02-28T01:59:33.030Z,6.97
2023-02-28T02:02:01.086Z,7.77
2023-02-28T02:04:36.108Z,6.28
2023-02-28T02:07:04.502Z,6.53
2023-02-28T02:09:31.726Z,6.40
2023-02-28T02:11:59.309Z,6.10
2023-02-28T02:14:38.416Z,6.63
2023-02-28T02:17:36.868Z,5.88
2023-02-28T02:20:17.471Z,6.18
2023-02-28T02:23:05.703Z,6.30
2023-02-28T02:25:50.906Z,5.90
2023-02-28T02:28:32.958Z,6.00
2023-02-28T02:31:15.125Z,5.13
2023-02-28T02:34:17.284Z,5.70
2023-02-28T02:36:53.313Z,5.55
2023-02-28T02:39:31.062Z,6.13
2023-02-28T02:42:03.163Z,5.93
2023-02-28T02:44:39.401Z,6.85
2023-02-28T02:47:13.728Z,6.07
2023-02-28T02:49:47.339Z,6.50
2023-02-28T02:52:18.094Z,5.80
2023-02-28T02:54:48.642Z,5.80
2023-02-28T02:57:24.630Z,5.35
2023-02-28T02:59:54.957Z,5.68
2023-02-28T03:02:23.041Z,6.18
2023-02-28T03:04:54.300Z,6.00
2023-02-28T03:07:22.740Z,5.83
2023-02-28T03:09:57.788Z,5.60
2023-02-28T03:12:34.127Z,5.40
2023-02-28T03:15:13.114Z,5.72
2023-02-28T03:18:01.602Z,5.45
2023-02-28T03:20:45.039Z,5.50
2023-02-28T03:23:22.842Z,5.20
2023-02-28T03:26:14.635Z,5.80
2023-02-28T03:28:46.445Z,5.70
2023-02-28T03:31:23.772Z,3.80
2023-02-28T03:34:10.072Z,5.27
2023-02-28T03:36:45.107Z,5.35
2023-02-28T03:39:19.021Z,4.78
2023-02-28T03:41:52.837Z,4.68
2023-02-28T03:44:28.010Z,5.35
2023-02-28T03:47:04.646Z,5.17
2023-02-28T03:49:36.434Z,5.22
2023-02-28T03:52:07.912Z,4.95
2023-02-28T03:54:43.150Z,4.57
2023-02-28T03:57:24.203Z,5.35
2023-02-28T04:00:17.802Z,4.70
2023-02-28T04:02:44.990Z,3.97
2023-02-28T04:05:12.141Z,4.35
2023-02-28T04:07:39.349Z,4.60
2023-02-28T04:10:07.600Z,4.60
2023-02-28T04:12:34.590Z,4.50
2023-02-28T04:15:01.570Z,5.00
2023-02-28T04:17:30.423Z,4.53
2023-02-28T04:19:58.279Z,4.65
2023-02-28T04:22:27.354Z,5.85
2023-02-28T04:24:55.549Z,4.90
2023-02-28T04:27:23.174Z,4.50
2023-02-28T04:29:50.212Z,4.85
2023-02-28T04:32:17.271Z,4.55
2023-02-28T04:34:44.466Z,5.07
2023-02-28T04:37:13.698Z,4.10
2023-02-28T04:39:42.665Z,4.25
2023-02-28T04:42:10.338Z,4.57
2023-02-28T04:44:37.392Z,4.60
2023-02-28T04:47:04.476Z,4.22
2023-02-28T04:49:31.487Z,4.27
2023-02-28T04:51:58.480Z,4.70
2023-02-28T04:54:25.583Z,4.75
2023-02-28T04:56:52.551Z,4.15
2023-02-28T04:59:19.616Z,5.10
2023-02-28T05:01:48.668Z,4.70
2023-02-28T05:04:16.128Z,4.40
2023-02-28T05:06:43.263Z,4.72
2023-02-28T05:09:12.752Z,3.80
2023-02-28T05:11:41.254Z,4.47
2023-02-28T05:14:13.359Z,4.33
2023-02-28T05:16:40.643Z,4.13
2023-02-28T05:19:07.905Z,4.95
2023-02-28T05:21:37.458Z,4.80
2023-02-28T05:24:12.315Z,5.20
2023-02-28T05:26:42.089Z,4.03
2023-02-28T05:29:10.102Z,3.75
2023-02-28T05:31:38.043Z,4.35
2023-02-28T05:34:05.424Z,5.00
2023-02-28T05:36:33.149Z,3.90
2023-02-28T05:39:00.437Z,4.73
2023-02-28T05:41:27.958Z,4.55
2023-02-28T05:43:55.397Z,4.43
2023-02-28T05:46:22.404Z,4.53
2023-02-28T05:48:50.258Z,5.32
2023-02-28T05:51:18.634Z,5.00
2023-02-28T05:53:45.787Z,5.40
2023-02-28T05:56:12.906Z,5.32
2023-02-28T05:58:39.851Z,5.40
2023-02-28T06:01:35.199Z,5.38
2023-02-28T06:04:04.540Z,5.43
2023-02-28T06:06:31.578Z,6.00
2023-02-28T06:08:59.328Z,5.95
2023-02-28T06:11:28.886Z,6.90
2023-02-28T06:13:57.776Z,6.32
2023-02-28T06:16:25.966Z,5.20
2023-02-28T06:18:57.197Z,6.40
2023-02-28T06:21:24.575Z,7.05
2023-02-28T06:23:51.733Z,5.60
2023-02-28T06:26:18.718Z,7.55
2023-02-28T06:28:45.697Z,7.70
2023-02-28T06:31:15.457Z,7.13
2023-02-28T06:33:43.646Z,6.20
2023-02-28T06:36:11.895Z,6.30
2023-02-28T06:38:39.160Z,7.05
2023-02-28T06:41:07.128Z,6.97
2023-02-28T06:43:40.497Z,7.70
2023-02-28T06:46:09.495Z,4.90
2023-02-28T06:48:36.683Z,5.10
2023-02-28T06:51:10.732Z,4.78
2023-02-28T06:53:38.154Z,4.60
2023-02-28T06:56:07.638Z,4.55
2023-02-28T06:58:38.639Z,5.70
2023-02-28T07:01:06.540Z,5.00
2023-02-28T07:03:44.746Z,4.80
2023-02-28T07:06:12.224Z,5.00
2023-02-28T07:08:41.167Z,5.55
2023-02-28T07:11:08.100Z,4.70
2023-02-28T07:13:35.117Z,5.22
2023-02-28T07:16:07.804Z,5.18
2023-02-28T07:18:34.933Z,5.07
2023-02-28T07:21:07.788Z,5.00
2023-02-28T07:23:35.343Z,4.70
2023-02-28T07:26:02.812Z,4.70
2023-02-28T07:28:29.942Z,5.05
2023-02-28T07:30:57.173Z,4.73
2023-02-28T07:33:25.149Z,5.18
2023-02-28T07:35:52.345Z,4.70
2023-02-28T07:38:19.579Z,5.00
2023-02-28T07:40:46.644Z,5.15
2023-02-28T07:43:13.661Z,4.23
2023-02-28T07:45:40.858Z,5.07
2023-02-28T07:48:07.906Z,4.88
2023-02-28T07:50:35.771Z,4.88
2023-02-28T07:53:02.984Z,4.40
2023-02-28T07:55:30.065Z,5.00
2023-02-28T07:57:58.623Z,4.97
2023-02-28T08:00:25.737Z,7.25
2023-02-28T08:02:52.840Z,4.90
2023-02-28T08:05:21.981Z,4.60
2023-02-28T08:07:50.959Z,4.67
2023-02-28T08:10:18.307Z,4.47
2023-02-28T08:12:45.431Z,5.70
2023-02-28T08:15:12.803Z,5.68
2023-02-28T08:17:40.153Z,5.15
2023-02-28T08:20:08.140Z,4.40
2023-02-28T08:22:35.222Z,5.60
2023-02-28T08:25:02.244Z,5.10
2023-02-28T08:27:30.335Z,4.88
2023-02-28T08:29:57.340Z,5.10
2023-02-28T08:32:29.861Z,4.93
2023-02-28T08:34:57.743Z,4.72
2023-02-28T08:37:24.957Z,4.80
2023-02-28T08:39:55.572Z,5.28
2023-02-28T08:42:23.359Z,5.05
2023-02-28T08:44:50.427Z,4.23
2023-02-28T08:47:17.530Z,4.45
2023-02-28T08:49:44.547Z,5.10
2023-02-28T08:52:11.649Z,4.53
2023-02-28T08:54:39.086Z,5.30
2023-02-28T08:57:06.204Z,5.30
2023-02-28T08:59:33.760Z,5.05
2023-02-28T09:02:00.860Z,5.50
2023-02-28T09:04:28.146Z,4.97
2023-02-28T09:06:55.156Z,4.95
2023-02-28T09:09:22.293Z,4.23
2023-02-28T09:11:49.330Z,4.88
2023-02-28T09:14:18.529Z,5.90
2023-02-28T09:16:45.742Z,4.53
2023-02-28T09:19:13.984Z,5.40
2023-02-28T09:21:41.404Z,4.80
2023-02-28T09:24:08.972Z,4.78
2023-02-28T09:26:43.289Z,4.70
2023-02-28T09:29:18.725Z,4.55
2023-02-28T09:31:46.475Z,5.18
2023-02-28T09:34:13.608Z,4.20
2023-02-28T09:36:45.473Z,4.07
2023-02-28T09:39:16.701Z,4.40
2023-02-28T09:41:51.903Z,4.60
2023-02-28T09:44:40.640Z,4.38
2023-02-28T09:47:35.523Z,4.80
2023-02-28T09:50:37.179Z,3.78
2023-02-28T09:53:15.372Z,4.38
2023-02-28T09:55:48.850Z,4.53
2023-02-28T09:58:24.415Z,4.97
2023-02-28T10:01:03.706Z,4.63
2023-02-28T10:03:43.555Z,3.92
2023-02-28T10:06:19.044Z,4.60
2023-02-28T10:09:01.357Z,4.53
2023-02-28T10:11:29.344Z,4.63
2023-02-28T10:14:03.640Z,4.23
2023-02-28T10:16:38.021Z,4.10
2023-02-28T10:19:14.308Z,5.00
2023-02-28T10:21:47.649Z,4.38
2023-02-28T10:24:29.486Z,4.18
2023-02-28T10:27:12.769Z,4.67
2023-02-28T10:29:43.123Z,4.30
2023-02-28T10:32:15.556Z,4.47
2023-02-28T10:34:42.672Z,4.32
2023-02-28T10:37:12.732Z,5.28
2023-02-28T10:39:43.158Z,4.10
2023-02-28T10:42:31.283Z,4.50
2023-02-28T10:45:17.396Z,4.20
2023-02-28T10:47:58.832Z,4.25
2023-02-28T10:50:29.065Z,4.60
2023-02-28T10:52:56.522Z,4.00
2023-02-28T10:55:26.820Z,4.47
2023-02-28T10:57:54.004Z,4.00
2023-02-28T11:00:26.463Z,4.97
2023-02-28T11:02:55.760Z,4.68
2023-02-28T11:05:33.073Z,4.70
2023-02-28T11:08:12.376Z,4.80
2023-02-28T11:10:40.105Z,4.95
2023-02-28T11:13:07.155Z,4.30
2023-02-28T11:15:36.287Z,4.93
2023-02-28T11:18:08.233Z,4.40
2023-02-28T11:20:35.730Z,4.60
2023-02-28T11:23:05.604Z,5.07
2023-02-28T11:25:39.381Z,4.20
2023-02-28T11:28:24.281Z,4.63
2023-02-28T11:31:04.359Z,4.13
2023-02-28T11:33:34.062Z,4.32
2023-02-28T11:36:12.090Z,4.25
2023-02-28T11:38:39.478Z,4.80
2023-02-28T11:41:17.931Z,4.63
2023-02-28T11:43:53.921Z,4.53
2023-02-28T11:46:39.309Z,4.68
2023-02-28T11:49:43.826Z,4.55
2023-02-28T11:52:46.650Z,5.18
2023-02-28T11:55:29.009Z,4.72
2023-02-28T11:58:26.164Z,4.70
2023-02-28T12:00:56.252Z,5.10
2023-02-28T12:03:50.670Z,4.70
2023-02-28T12:06:50.381Z,4.28
2023-02-28T12:09:32.456Z,4.70
2023-02-28T12:12:25.588Z,4.40
2023-02-28T12:15:17.270Z,4.28
2023-02-28T12:17:56.826Z,4.35
2023-02-28T12:20:37.438Z,4.82
2023-02-28T12:23:24.850Z,4.90
2023-02-28T12:26:33.324Z,4.90
2023-02-28T12:29:10.898Z,4.30
2023-02-28T12:31:43.141Z,5.20
2023-02-28T12:35:08.855Z,4.90
2023-02-28T12:37:42.323Z,4.97
2023-02-28T12:40:19.152Z,4.50
2023-02-28T12:42:50.557Z,4.90
2023-02-28T12:45:20.635Z,4.97
2023-02-28T12:47:54.030Z,4.63
2023-02-28T12:50:22.227Z,4.65
2023-02-28T12:53:07.835Z,4.20
2023-02-28T12:55:45.097Z,4.38
2023-02-28T12:58:27.401Z,4.72
2023-02-28T13:00:57.118Z,4.90
2023-02-28T13:03:31.427Z,4.28
2023-02-28T13:06:40.749Z,4.23
2023-02-28T13:09:20.480Z,4.97
2023-02-28T13:11:50.096Z,4.05
2023-02-28T13:14:26.412Z,4.40
2023-02-28T13:17:02.552Z,4.60
2023-02-28T13:19:33.170Z,4.43
2023-02-28T13:22:00.996Z,4.40
2023-02-28T13:24:44.896Z,4.15
2023-02-28T13:27:16.233Z,4.40
2023-02-28T13:29:45.558Z,4.38
2023-02-28T13:32:12.584Z,4.50
2023-02-28T13:35:08.013Z,3.88
2023-02-28T13:37:42.719Z,4.00
2023-02-28T13:40:12.741Z,4.10
2023-02-28T13:42:51.610Z,4.28
2023-02-28T13:45:23.853Z,4.07
2023-02-28T13:47:55.613Z,4.22
2023-02-28T13:50:31.767Z,4.68
2023-02-28T13:53:14.535Z,4.35
2023-02-28T13:55:56.891Z,4.78
2023-02-28T13:58:40.558Z,4.33
2023-02-28T14:01:37.899Z,5.63
2023-02-28T14:04:17.489Z,4.43
2023-02-28T14:06:51.275Z,4.53
2023-02-28T14:09:24.739Z,5.50
2023-02-28T14:11:52.538Z,4.83
2023-02-28T14:14:38.178Z,5.15
2023-02-28T14:17:15.102Z,4.60
2023-02-28T14:19:47.541Z,4.88
2023-02-28T14:22:39.915Z,4.47
2023-02-28T14:25:16.756Z,4.00
2023-02-28T14:27:58.644Z,4.32
2023-02-28T14:31:13.679Z,4.78
2023-02-28T14:33:47.129Z,4.15
2023-02-28T14:36:26.338Z,4.95
2023-02-28T14:39:08.112Z,5.00
2023-02-28T14:41:40.916Z,3.75
2023-02-28T14:44:19.112Z,4.78
2023-02-28T14:46:52.262Z,3.95
2023-02-28T14:49:22.182Z,4.45
2023-02-28T14:52:02.679Z,3.63
2023-02-28T14:54:30.105Z,4.25
2023-02-28T14:56:57.687Z,4.13
2023-02-28T14:59:36.738Z,4.47
2023-02-28T15:02:26.176Z,4.43
2023-02-28T15:05:02.237Z,4.20
2023-02-28T15:07:30.158Z,4.60
2023-02-28T15:10:19.022Z,4.50
2023-02-28T15:12:56.111Z,4.10
2023-02-28T15:15:35.929Z,4.45
2023-02-28T15:18:12.083Z,4.30
2023-02-28T15:20:42.421Z,4.50
2023-02-28T15:23:11.201Z,4.32
2023-02-28T15:25:38.887Z,3.95
2023-02-28T15:28:06.233Z,4.03
2023-02-28T15:30:33.873Z,4.10
2023-02-28T15:33:26.306Z,3.58
2023-02-28T15:36:06.415Z,4.30
2023-02-28T15:38:37.075Z,4.18
2023-02-28T15:41:09.327Z,4.25
2023-02-28T15:43:39.507Z,3.70
2023-02-28T15:46:12.426Z,3.83
2023-02-28T15:48:40.879Z,4.00
2023-02-28T15:51:23.798Z,4.35
2023-02-28T15:54:09.816Z,2.97
2023-02-28T15:56:46.049Z,3.37
2023-02-28T15:59:24.141Z,3.80
2023-02-28T16:02:11.769Z,3.90
2023-02-28T16:04:57.537Z,4.05
2023-02-28T16:07:25.724Z,3.40
2023-02-28T16:09:54.535Z,3.80
2023-02-28T16:12:25.271Z,4.20
2023-02-28T16:14:54.418Z,3.97
2023-02-28T16:17:24.497Z,4.65
2023-02-28T16:19:51.712Z,4.22
2023-02-28T16:22:18.795Z,3.87
2023-02-28T16:24:45.853Z,3.78
2023-02-28T16:27:17.701Z,3.80
2023-02-28T16:29:46.093Z,3.60
2023-02-28T16:32:16.372Z,3.80
2023-02-28T16:34:44.939Z,3.50
2023-02-28T16:37:17.358Z,3.70
2023-02-28T16:39:45.630Z,3.63
2023-02-28T16:42:23.551Z,2.92
2023-02-28T16:44:50.884Z,3.53
2023-02-28T16:47:18.185Z,3.27
2023-02-28T16:49:45.612Z,3.90
2023-02-28T16:52:15.347Z,4.00
2023-02-28T16:54:43.292Z,4.07
2023-02-28T16:57:22.394Z,3.53
2023-02-28T16:59:51.993Z,3.67
2023-02-28T17:02:20.744Z,3.35
2023-02-28T17:04:48.442Z,3.25
2023-02-28T17:07:17.872Z,3.70
2023-02-28T17:09:46.636Z,3.30
2023-02-28T17:12:14.236Z,3.10
2023-02-28T17:14:41.526Z,3.35
2023-02-28T17:17:11.205Z,3.38
2023-02-28T17:19:39.452Z,3.38
2023-02-28T17:22:06.505Z,3.35
2023-02-28T17:24:33.539Z,3.30
2023-02-28T17:27:01.134Z,2.90
2023-02-28T17:29:28.796Z,3.03
2023-02-28T17:31:59.015Z,3.10
2023-02-28T17:34:27.836Z,2.90
2023-02-28T17:36:54.846Z,2.47
2023-02-28T17:39:28.175Z,2.60
2023-02-28T17:41:56.341Z,2.80
2023-02-28T17:44:25.077Z,2.63
2023-02-28T17:46:53.193Z,2.55
2023-02-28T17:49:20.650Z,3.63
2023-02-28T17:51:48.209Z,4.85
2023-02-28T17:54:17.592Z,3.30
2023-02-28T17:56:45.357Z,2.08
2023-02-28T17:59:13.401Z,2.60
2023-02-28T18:01:40.645Z,2.27
2023-02-28T18:04:07.828Z,2.60
2023-02-28T18:06:47.533Z,2.70
2023-02-28T18:09:24.784Z,2.58
2023-02-28T18:11:53.003Z,2.88
2023-02-28T18:14:23.760Z,2.50
2023-02-28T18:16:51.968Z,2.38
2023-02-28T18:19:19.741Z,2.58
2023-02-28T18:21:52.502Z,2.10
2023-02-28T18:24:22.780Z,2.10
2023-02-28T18:26:50.004Z,2.00
2023-02-28T18:29:22.787Z,2.35
2023-02-28T18:31:50.696Z,2.83
2023-02-28T18:34:18.377Z,2.28
2023-02-28T18:36:47.322Z,2.70
2023-02-28T18:39:15.665Z,2.20
2023-02-28T18:41:42.807Z,1.83
2023-02-28T18:44:19.139Z,2.47
2023-02-28T18:46:46.962Z,2.15
2023-02-28T18:49:14.223Z,2.17
2023-02-28T18:51:45.295Z,1.80
2023-02-28T18:54:17.414Z,1.98
2023-02-28T18:56:44.802Z,2.00
2023-02-28T18:59:12.407Z,2.33
2023-02-28T19:01:40.132Z,2.00
2023-02-28T19:04:07.280Z,2.00
2023-02-28T19:06:35.077Z,2.30
2023-02-28T19:09:04.033Z,2.72
2023-02-28T19:11:32.227Z,2.08
2023-02-28T19:13:59.442Z,2.53
2023-02-28T19:16:28.189Z,2.30
2023-02-28T19:18:55.872Z,1.90
2023-02-28T19:21:24.049Z,2.10
2023-02-28T19:23:51.024Z,2.05
2023-02-28T19:26:23.827Z,2.25
2023-02-28T19:28:51.129Z,2.40
2023-02-28T19:31:21.113Z,2.13
2023-02-28T19:33:48.352Z,2.30
2023-02-28T19:36:16.068Z,2.20
2023-02-28T19:38:44.940Z,2.00
2023-02-28T19:41:14.984Z,2.20
2023-02-28T19:43:42.498Z,1.90
2023-02-28T19:46:12.225Z,2.10
2023-02-28T19:48:40.027Z,2.78
2023-02-28T19:51:10.747Z,2.42
2023-02-28T19:53:38.946Z,2.40
2023-02-28T19:56:06.566Z,2.30
2023-02-28T19:58:33.952Z,2.40
2023-02-28T20:01:13.241Z,2.85
2023-02-28T20:03:41.400Z,2.75
2023-02-28T20:06:11.430Z,2.17
2023-02-28T20:08:38.857Z,2.90
2023-02-28T20:11:08.874Z,5.35
2023-02-28T20:13:36.429Z,2.40
2023-02-28T20:16:06.545Z,2.80
2023-02-28T20:18:34.529Z,2.20
2023-02-28T20:21:05.074Z,2.10
2023-02-28T20:23:32.133Z,2.00
2023-02-28T20:26:02.509Z,2.38
2023-02-28T20:28:29.511Z,2.05
2023-02-28T20:30:56.972Z,2.23
2023-02-28T20:33:24.614Z,2.22
2023-02-28T20:35:59.349Z,2.70
2023-02-28T20:38:26.493Z,1.95
2023-02-28T20:40:59.388Z,2.33
2023-02-28T20:43:26.603Z,2.00
2023-02-28T20:45:54.819Z,2.22
2023-02-28T20:48:22.547Z,2.00
2023-02-28T20:50:50.925Z,1.70
2023-02-28T20:53:18.517Z,1.90
2023-02-28T20:56:04.909Z,1.67
2023-02-28T20:58:35.655Z,2.40
2023-02-28T21:01:17.991Z,2.08
2023-02-28T21:03:47.952Z,6.88
2023-02-28T21:06:18.795Z,4.90
2023-02-28T21:08:45.869Z,2.47
2023-02-28T21:11:18.927Z,2.00
2023-02-28T21:13:46.924Z,2.20
2023-02-28T21:16:17.515Z,1.80
2023-02-28T21:18:45.128Z,1.60
2023-02-28T21:21:17.012Z,1.67
2023-02-28T21:28:14.446Z,1.65
2023-02-28T21:30:41.857Z,2.65
2023-02-28T21:33:08.894Z,2.15
2023-02-28T21:35:35.918Z,2.27
2023-02-28T21:38:03.042Z,2.42
2023-02-28T21:40:30.093Z,1.80
2023-02-28T21:42:57.176Z,2.00
2023-02-28T21:45:24.198Z,2.03
2023-02-28T21:47:51.169Z,2.00
2023-02-28T21:50:18.262Z,1.98
2023-02-28T21:52:45.468Z,2.00
2023-02-28T21:55:12.518Z,1.60
2023-02-28T21:57:39.574Z,2.08
2023-02-28T22:00:07.629Z,1.70
2023-02-28T22:02:39.463Z,1.75
2023-02-28T22:05:06.730Z,1.90
2023-02-28T22:07:33.811Z,2.10
2023-02-28T22:10:00.896Z,1.90
2023-02-28T22:12:30.571Z,1.80
2023-02-28T22:14:57.562Z,2.03
2023-02-28T22:17:24.594Z,1.80
2023-02-28T22:19:51.665Z,2.38
2023-02-28T22:22:18.731Z,1.70
2023-02-28T22:24:45.775Z,2.10
2023-02-28T22:27:12.839Z,2.00
2023-02-28T22:29:40.020Z,2.28
2023-02-28T22:32:10.033Z,1.88
2023-02-28T22:34:37.433Z,1.90
2023-02-28T22:37:04.456Z,2.30
2023-02-28T22:39:31.497Z,2.25
2023-02-28T22:41:59.675Z,1.92
2023-02-28T22:44:26.762Z,1.77
2023-02-28T22:46:55.027Z,2.20
2023-02-28T22:49:22.327Z,2.30
2023-02-28T22:51:49.371Z,2.15
2023-02-28T22:54:16.713Z,5.78
2023-02-28T22:56:43.904Z,2.30
2023-02-28T22:59:13.277Z,1.90
2023-02-28T23:01:44.023Z,2.10
2023-02-28T23:04:13.035Z,1.83
2023-02-28T23:06:44.794Z,1.90
2023-02-28T23:09:17.824Z,1.77
2023-02-28T23:11:50.712Z,2.03
2023-02-28T23:14:18.981Z,2.10
2023-02-28T23:16:48.473Z,1.98
2023-02-28T23:19:19.345Z,2.00
2023-02-28T23:21:46.956Z,1.85
2023-02-28T23:24:16.281Z,1.70
2023-02-28T23:26:46.622Z,1.70
2023-02-28T23:29:15.286Z,1.90
2023-02-28T23:31:42.464Z,2.08
2023-02-28T23:34:10.978Z,1.90
2023-02-28T23:36:39.417Z,2.30
2023-02-28T23:39:06.554Z,2.13
2023-02-28T23:41:33.638Z,2.10
2023-02-28T23:44:00.664Z,2.00
2023-02-28T23:46:27.727Z,2.20
2023-02-28T23:48:54.770Z,2.20
2023-02-28T23:51:22.532Z,1.83
2023-02-28T23:53:52.013Z,1.88
2023-02-28T23:56:21.752Z,2.40
2023-02-28T23:58:49.196Z,1.83
